Atlantic, IA

6:08 PM CDT on May 26, 2017 (GMT -0500)
Atlantic Municipal

Weather History for KAIO - January, 2014

Change the Weather History Date:

Sunday, January 19, 2014

  Actual Average Record
Temperature  
Mean Temperature 36 °F -  
Max Temperature 59 °F 29 °F 59 °F (2014)
Min Temperature 14 °F 12 °F -9 °F (2008)
Degree Days  
Heating Degree Days 28    
Moisture  
Dew Point 21 °F    
Average Humidity 60    
Maximum Humidity 93    
Minimum Humidity 27    
Precipitation  
Precipitation 0.00 in - - ()
Sea Level Pressure  
Sea Level Pressure 29.79 in    
Wind  
Wind Speed 10 mph (SW)    
Max Wind Speed 21 mph    
Max Gust Speed 26 mph    
Visibility 10 miles    
Events Snow    
Averages and records for this station are not official NWS values.
T = Trace of Precipitation, MM = Missing Value Source: NWS Daily Summary

Daily Weather History Graph

Daily Weather History Graph

Search for Another Location

Airport or City:

Trip Planner

Search our weather history database for the weather conditions in past years. The results will help you decide how hot, cold, wet, or windy it might be!

Date:

Astronomy

Jan. 19, 2014 Rise Set
Actual Time 7:41 AM CST 5:20 PM CST
Civil Twilight 7:11 AM CST 5:50 PM CST
Nautical Twilight 6:37 AM CST 6:24 PM CST
Astronomical Twilight 6:04 AM CST 6:57 PM CST
Moon 9:02 PM CST (1/19) 9:09 AM CST (1/19)
Length of Visible Light 10h 38m
Length of Day
9h 38m
Waning Gibbous, 89% of the Moon is Illuminated
Jan 19
Waning Gibbous
Jan 23
Last Quarter
Jan 30
New
Feb 6
First Quarter
Feb 14
Full

Hourly Weather History & Observations

Time (CST) Temp. Windchill Dew Point Humidity Pressure Visibility Wind Dir Wind Speed Gust Speed Precip Events Conditions
12:15 AM 17.6 °F 8.2 °F 14.0 °F 86% 30.00 in 10.0 mi SSW 6.9 mph - N/A Snow Light Snow
12:35 AM 17.6 °F 9.3 °F 14.0 °F 86% 29.98 in 10.0 mi SSW 5.8 mph - N/A Snow Light Snow
12:55 AM 15.8 °F 7.2 °F 14.0 °F 93% 29.99 in 10.0 mi SSW 5.8 mph - N/A   Clear
1:15 AM 17.6 °F 5.7 °F 14.0 °F 86% 29.93 in 10.0 mi South 10.4 mph - N/A   Clear
1:35 AM 19.4 °F 9.5 °F 15.8 °F 86% 29.94 in 10.0 mi SW 8.1 mph - N/A   Clear
1:55 AM 17.6 °F 8.2 °F 14.0 °F 86% 29.94 in 10.0 mi SSW 6.9 mph - N/A   Clear
2:15 AM 15.8 °F 4.2 °F 14.0 °F 93% 29.93 in 10.0 mi SSW 9.2 mph - N/A   Clear
2:35 AM 15.8 °F 7.2 °F 14.0 °F 93% 29.93 in 10.0 mi SSW 5.8 mph - N/A   Clear
2:55 AM 14.0 °F 6.5 °F 10.4 °F 86% 29.93 in 10.0 mi SSW 4.6 mph - N/A   Clear
3:15 AM 14.0 °F 2.9 °F 12.2 °F 93% 29.93 in 10.0 mi SSW 8.1 mph - N/A   Clear
3:35 AM 15.8 °F 6.1 °F 12.2 °F 86% 29.91 in 10.0 mi SSW 6.9 mph - N/A Snow Light Snow
3:55 AM 17.6 °F 6.4 °F 14.0 °F 86% 29.89 in 10.0 mi SSW 9.2 mph - N/A   Clear
4:15 AM 15.8 °F 4.2 °F 14.0 °F 93% 29.89 in 10.0 mi SSW 9.2 mph - N/A   Clear
4:35 AM 19.4 °F 8.6 °F 15.8 °F 86% 29.89 in 10.0 mi SSW 9.2 mph - N/A Snow Light Snow
4:55 AM 17.6 °F 6.4 °F 14.0 °F 86% 29.88 in 10.0 mi SSW 9.2 mph - N/A   Clear
5:15 AM 17.6 °F 5.7 °F 14.0 °F 86% 29.87 in 10.0 mi SSW 10.4 mph - N/A   Clear
5:35 AM 17.6 °F 6.4 °F 14.0 °F 86% 29.86 in 10.0 mi SSW 9.2 mph - N/A   Clear
5:55 AM 17.6 °F 5.7 °F 15.8 °F 93% 29.85 in 9.0 mi SSW 10.4 mph - N/A Snow Light Snow
6:15 AM 19.4 °F 8.6 °F 15.8 °F 86% 29.84 in 10.0 mi SSW 9.2 mph - N/A   Clear
6:35 AM 17.6 °F 7.3 °F 15.8 °F 93% 29.82 in 10.0 mi SSW 8.1 mph - N/A   Clear
6:55 AM 17.6 °F 7.3 °F 15.8 °F 93% 29.82 in 10.0 mi SSW 8.1 mph - N/A   Clear
7:15 AM 17.6 °F 6.4 °F 15.8 °F 93% 29.81 in 10.0 mi SSW 9.2 mph - N/A Snow Light Snow
7:35 AM 19.4 °F 8.6 °F 17.6 °F 93% 29.80 in 10.0 mi South 9.2 mph - N/A Snow Light Snow
7:55 AM 21.2 °F 12.6 °F 17.6 °F 86% 29.81 in 10.0 mi SSW 6.9 mph - N/A   Clear
8:15 AM 23.0 °F 13.1 °F 19.4 °F 86% 29.80 in 10.0 mi SSW 9.2 mph - N/A   Clear
8:35 AM 24.8 °F 15.3 °F 21.2 °F 86% 29.79 in 10.0 mi SSW 9.2 mph - N/A   Clear
8:55 AM 28.4 °F 19.7 °F 23.0 °F 80% 29.79 in - SSW 9.2 mph - N/A   Clear
9:15 AM 30.2 °F 21.3 °F 23.0 °F 75% 29.78 in 10.0 mi SSW 10.4 mph - N/A   Clear
9:35 AM 32.0 °F 23.6 °F 24.8 °F 75% 29.77 in 10.0 mi SSW 10.4 mph - N/A   Clear
9:55 AM 35.6 °F 26.6 °F 24.8 °F 65% 29.77 in 10.0 mi SW 13.8 mph - N/A   Clear
10:15 AM 37.4 °F 28.5 °F 24.8 °F 60% 29.77 in 10.0 mi SW 15.0 mph 21.9 mph N/A   Clear
10:35 AM 39.2 °F 30.8 °F 24.8 °F 56% 29.76 in 10.0 mi SW 15.0 mph - N/A   Clear
10:55 AM 41.0 °F 32.5 °F 24.8 °F 53% 29.77 in 10.0 mi WSW 17.3 mph - N/A   Clear
11:15 AM 44.6 °F 38.1 °F 24.8 °F 46% 29.74 in 10.0 mi WSW 13.8 mph 20.7 mph N/A   Clear
11:35 AM 46.4 °F 40.1 °F 23.0 °F 40% 29.73 in 10.0 mi SW 15.0 mph - N/A   Clear
11:55 AM 48.2 °F - 23.0 °F 37% 29.73 in 10.0 mi WSW 13.8 mph - N/A   Clear
12:15 PM 50.0 °F - 23.0 °F 35% 29.71 in 10.0 mi WSW 15.0 mph - N/A   Clear
12:35 PM 50.0 °F - 23.0 °F 35% 29.70 in 10.0 mi WSW 16.1 mph 23.0 mph N/A   Clear
12:55 PM 51.8 °F - 23.0 °F 33% 29.68 in 10.0 mi WSW 16.1 mph 23.0 mph N/A   Clear
1:15 PM 53.6 °F - 23.0 °F 30% 29.67 in 10.0 mi WSW 18.4 mph - N/A   Clear
1:35 PM 53.6 °F - 23.0 °F 30% 29.66 in 10.0 mi WSW 18.4 mph - N/A   Clear
1:55 PM 55.4 °F - 23.0 °F 29% 29.65 in 10.0 mi West 18.4 mph 25.3 mph N/A   Clear
2:15 PM 57.2 °F - 23.0 °F 27% 29.64 in 10.0 mi West 19.6 mph 25.3 mph N/A   Clear
2:35 PM 57.2 °F - 23.0 °F 27% 29.63 in 10.0 mi WSW 18.4 mph 26.5 mph N/A   Clear
2:55 PM 57.2 °F - 23.0 °F 27% 29.63 in 10.0 mi WSW 20.7 mph - N/A   Clear
3:15 PM 59.0 °F - 24.8 °F 27% 29.63 in 10.0 mi WSW 19.6 mph 26.5 mph N/A   Clear
3:35 PM 59.0 °F - 24.8 °F 27% 29.63 in 10.0 mi SW 19.6 mph - N/A   Clear
3:55 PM 59.0 °F - 24.8 °F 27% 29.64 in 10.0 mi WSW 17.3 mph 24.2 mph N/A   Clear
4:15 PM 57.2 °F - 24.8 °F 29% 29.65 in 10.0 mi WSW 13.8 mph 19.6 mph N/A   Clear
4:35 PM 57.2 °F - 24.8 °F 29% 29.65 in 10.0 mi WSW 11.5 mph - N/A   Clear
4:55 PM 53.6 °F - 24.8 °F 33% 29.66 in 10.0 mi SW 9.2 mph - N/A   Clear
5:15 PM 53.6 °F - 23.0 °F 30% 29.67 in 10.0 mi SW 8.1 mph - N/A   Clear
5:35 PM 50.0 °F - 23.0 °F 35% 29.67 in 10.0 mi SW 9.2 mph - N/A   Clear
5:55 PM 46.4 °F 44.3 °F 23.0 °F 40% 29.68 in 10.0 mi WSW 4.6 mph - N/A   Clear
6:15 PM 51.8 °F - 23.0 °F 33% 29.70 in 10.0 mi WNW 11.5 mph - N/A   Clear
6:55 PM 51.8 °F - 23.0 °F 33% 29.72 in 10.0 mi NW 16.1 mph - N/A   Clear
7:15 PM 48.2 °F - 23.0 °F 37% 29.73 in 10.0 mi NNW 13.8 mph - N/A   Clear
7:35 PM 46.4 °F 40.7 °F 24.8 °F 43% 29.74 in 10.0 mi NW 12.7 mph 18.4 mph N/A   Clear
7:55 PM 48.2 °F - 24.8 °F 40% 29.76 in 10.0 mi NW 18.4 mph - N/A   Clear
8:15 PM 44.6 °F 38.8 °F 24.8 °F 46% 29.77 in 10.0 mi NW 11.5 mph - N/A   Clear
8:35 PM 42.8 °F 36.2 °F 24.8 °F 49% 29.77 in 10.0 mi WNW 12.7 mph - N/A   Clear
8:55 PM 42.8 °F 36.6 °F 24.8 °F 49% 29.78 in 10.0 mi WNW 11.5 mph - N/A   Clear
9:15 PM 42.8 °F 36.2 °F 24.8 °F 49% 29.79 in 10.0 mi WNW 12.7 mph - N/A   Clear
9:35 PM 41.0 °F 33.5 °F 24.8 °F 53% 29.79 in 10.0 mi WNW 13.8 mph - N/A   Clear
9:55 PM 41.0 °F 33.9 °F 24.8 °F 53% 29.80 in 10.0 mi NW 12.7 mph - N/A   Clear
10:15 PM 39.2 °F 33.0 °F 26.6 °F 61% 29.81 in 10.0 mi NW 9.2 mph - N/A   Clear
10:35 PM 39.2 °F 32.5 °F 26.6 °F 61% 29.81 in 10.0 mi WNW 10.4 mph - N/A   Clear
10:55 PM 41.0 °F 34.7 °F 26.6 °F 57% 29.82 in 10.0 mi WNW 10.4 mph - N/A   Clear
11:15 PM 39.2 °F 33.0 °F 26.6 °F 61% 29.83 in 10.0 mi WNW 9.2 mph - N/A   Clear
11:35 PM 39.2 °F 33.0 °F 26.6 °F 61% 29.83 in 10.0 mi WNW 9.2 mph - N/A   Clear
11:55 PM 35.6 °F 32.8 °F 24.8 °F 65% 29.83 in 10.0 mi South 3.5 mph - N/A   Clear